»·PEaware :: UAL835 KPDX-KSEA

UAL835 :: KPDX-KSEA

FLIGHT INFORMATION

Flight Status: Arrived
Operator:
United Airlines
More flights by this operator :: More flights under this callsign
Pilot: Camron S. (27302)
Aircraft: BOEING 737-800
(B738)
More flights by this aircraft type
Origin: KPDX Portland Intl
United States
Destination: KSEA Seattle-Tacoma Intl
United States
More flights between these airports :: More routes between these airports
Route: +PTLD1 COUGA KRIEG HAWK27
File this flight plan on PilotEdge
Remarks:
Altitude:
(Current/Filed)
16,000ft
Speed:
(Current/Filed)
290kts
Departed: 30-Jul-20 05:24 PM
Arrived: 30-Jul-20 05:59 PM
Distance/Time
Traveled:
112nm/0:35
Distance/Time
To Go:
Arrived

Flight Plot

Page will automatically refresh every two minutes.


Map Options




Map Legend


Flown Route
Filed Route
Departure Airport
Arrival Airport
Navaid (VOR, NDB)
Fix

Horizontal Profiles

Position Reports

Time Latitude Longitude Heading Altitude Ground
Speed
30-Jul-20 17:04 45.590232 -122.598371 210 27ft 0kts
30-Jul-20 17:05 45.590232 -122.598371 210 27ft 0kts
30-Jul-20 17:06 45.590232 -122.598371 210 27ft 0kts
30-Jul-20 17:07 45.590232 -122.598371 210 27ft 0kts
30-Jul-20 17:09 45.590232 -122.598371 210 27ft 0kts
30-Jul-20 17:10 45.590232 -122.598371 210 27ft 0kts
30-Jul-20 17:11 45.590232 -122.598371 210 27ft 0kts
30-Jul-20 17:12 45.590232 -122.598371 210 27ft 0kts
30-Jul-20 17:13 45.590233 -122.598371 210 27ft 0kts
30-Jul-20 17:14 45.590233 -122.598371 210 27ft 0kts
30-Jul-20 17:15 45.590451 -122.598190 186 27ft 2kts
30-Jul-20 17:16 45.590678 -122.598445 109 27ft 0kts
30-Jul-20 17:17 45.590678 -122.598417 90 27ft 0kts
30-Jul-20 17:18 45.591518 -122.598896 355 27ft 0kts
30-Jul-20 17:19 45.593381 -122.595568 94 30ft 18kts
30-Jul-20 17:20 45.590238 -122.587167 118 27ft 25kts
30-Jul-20 17:21 45.586891 -122.578523 120 27ft 26kts
30-Jul-20 17:22 45.583219 -122.569129 119 27ft 24kts
30-Jul-20 17:23 45.583598 -122.567041 322 27ft 10kts
30-Jul-20 17:24 45.597492 -122.602710 298 1382ft 172kts
30-Jul-20 17:24 45.619849 -122.662486 299 3494ft 239kts
30-Jul-20 17:26 45.661834 -122.774911 295 7575ft 295kts
30-Jul-20 17:27 45.701859 -122.880819 322 9999ft 310kts
30-Jul-20 17:27 45.771822 -122.892357 34 11933ft 346kts
30-Jul-20 17:28 45.856962 -122.823554 18 14893ft 374kts
30-Jul-20 17:30 45.976266 -122.767113 23 15989ft 398kts
30-Jul-20 17:30 46.056897 -122.705663 28 16010ft 394kts
30-Jul-20 17:31 46.167580 -122.692052 354 16016ft 404kts
30-Jul-20 17:32 46.278872 -122.714039 354 16016ft 404kts
30-Jul-20 17:33 46.390720 -122.724816 0 15974ft 402kts
30-Jul-20 17:34 46.499123 -122.728595 0 15978ft 402kts
30-Jul-20 17:35 46.606864 -122.732512 0 15982ft 383kts
30-Jul-20 17:36 46.713387 -122.736363 0 15326ft 385kts
30-Jul-20 17:37 46.808177 -122.707951 35 14259ft 328kts
30-Jul-20 17:38 46.878545 -122.629384 39 12861ft 327kts
30-Jul-20 17:39 46.950136 -122.557592 23 12014ft 302kts
30-Jul-20 17:40 47.033077 -122.520435 19 12005ft 317kts
30-Jul-20 17:41 47.119557 -122.492750 9 11241ft 313kts
30-Jul-20 17:42 47.204972 -122.477648 8 10020ft 296kts
30-Jul-20 17:43 47.285209 -122.465593 8 9097ft 288kts
30-Jul-20 17:44 47.363910 -122.454834 3 7993ft 275kts
30-Jul-20 17:45 47.440198 -122.455353 2 6685ft 271kts
30-Jul-20 17:46 47.512093 -122.455079 356 6023ft 246kts
30-Jul-20 17:47 47.579458 -122.441413 5 5995ft 245kts
30-Jul-20 17:48 47.647590 -122.427283 5 5994ft 246kts
30-Jul-20 17:49 47.715442 -122.413228 5 5999ft 245kts
30-Jul-20 17:50 47.783007 -122.396911 23 5660ft 250kts
30-Jul-20 17:51 47.788761 -122.320039 144 4795ft 228kts
30-Jul-20 17:52 47.732712 -122.305162 184 4029ft 208kts
30-Jul-20 17:53 47.673568 -122.305830 183 3989ft 212kts
30-Jul-20 17:54 47.618770 -122.306290 184 3517ft 189kts
30-Jul-20 17:55 47.567352 -122.306725 184 2472ft 159kts
30-Jul-20 17:56 47.524967 -122.307584 183 1641ft 154kts
30-Jul-20 17:57 47.483264 -122.307710 183 784ft 144kts
30-Jul-20 17:58 47.452593 -122.307418 138 423ft 21kts

Navigation Log

Ident Type
Flight plan parsing failed, navigation log unavailable